Lapel, IN (46051)

4:13 PM EDT on March 30, 2015 (GMT -0400)
Lapel Indiana | | Change Station
CLOSE
Current Station
Personal Weather Station
Location: Anderson, IN
Elevation: 847 ft
Nearby Weather Stations

Elev 847 ft 40.06 °N, 85.81 °W | Updated 14 seconds ago

Partly Cloudy
Partly Cloudy
61.2 °F
Feels Like 61.2 °F
N
9.2
Wind Variable Wind from NW
Gusts 12.0 mph

Today
High -- | Low -- °F
--% Chance of Precip.
Yesterday
High -- | Low -- °F
Precip. -- in
7:30 AM 8:05 PM
Waxing Gibbous, 82% visible
Pressure 30.06 in
Visibility 10.0 miles
Clouds Scattered Clouds 6500 ft
Dew Point 38 °F
Humidity 43%
Rainfall 0.02 in
Snow Depth Not available.
UV 5 out of 12
Pollen 11.20 out of 12
Air Quality Not available.
Flu Activity Not available.
METAR KAID 301946Z 31015G30KT 10SM SCT065 14/M02 A3006

More Conditions Fewer Conditions

Pressure 30.06 in
Visibility 10.0 miles
Clouds Scattered Clouds 6500 ft
Dew Point 38 °F
Humidity 43%
Rainfall 0.02 in
Snow Depth Not available.
UV 5 out of 12
Pollen 11.20 out of 12
Air Quality Not available.
Flu Activity Not available.
METAR KAID 301946Z 31015G30KT 10SM SCT065 14/M02 A3006

More Conditions Fewer Conditions

10-Day Weather Forecast

Almanac

Astronomy

Mar. 30, 2015 Rise Set
Actual Time
Civil Twilight
Nautical Twilight
Astronomical Twilight
Moon
Length of Visible Light
Length of Day
Tomorrow will be .
, % of the Moon is Illuminated

Today's Extremes

State Highs State Lows

Community

WunderPhotos

Upload Photos

1,809,579 photos uploaded!

WunderBlogs® & News

Nearby

Air Quality

  Air Quality AQ Index Pollutant
Not available.

Snow Depth

Station Depth Elevation

Earthquake Activity

City Distance Mag. Time & Date
Minimum magnitude displayed is 2.5.

Coastal Water Temperatures

Place Temperature

Stations

Nearby Weather Stations

Station Location Temp. Windchill Dew Point Humidity Wind Precip. Elev Updated Type